createdAt,value
2022-11-19T00:00:47.288Z,1.70
2022-11-19T00:02:54.672Z,1.55
2022-11-19T00:05:01.597Z,1.55
2022-11-19T00:10:03.430Z,1.90
2022-11-19T00:12:49.132Z,2.53
2022-11-19T00:15:22.284Z,1.92
2022-11-19T00:17:23.692Z,2.28
2022-11-19T00:20:05.346Z,1.85
2022-11-19T00:22:09.754Z,3.47
2022-11-19T00:24:19.765Z,2.95
2022-11-19T00:26:27.179Z,3.55
2022-11-19T00:28:28.517Z,2.25
2022-11-19T00:31:07.298Z,2.05
2022-11-19T00:33:11.718Z,2.13
2022-11-19T00:35:15.126Z,2.45
2022-11-19T00:37:25.723Z,1.88
2022-11-19T00:42:36.297Z,2.05
2022-11-19T00:54:17.875Z,2.30
2022-11-19T00:56:26.470Z,2.08
2022-11-19T01:03:24.570Z,1.90
2022-11-19T01:07:57.549Z,2.67
2022-11-19T01:10:01.767Z,1.70
2022-11-19T01:12:24.635Z,1.10
2022-11-19T01:14:26.110Z,3.20
2022-11-19T01:16:54.482Z,2.30
2022-11-19T01:19:03.917Z,1.65
2022-11-19T01:21:06.074Z,2.38
2022-11-19T01:23:26.767Z,1.88
2022-11-19T01:25:28.072Z,1.75
2022-11-19T01:27:37.424Z,2.55
2022-11-19T01:29:38.752Z,2.40
2022-11-19T01:34:07.679Z,3.25
2022-11-19T01:36:21.098Z,1.45
2022-11-19T01:38:29.867Z,1.80
2022-11-19T01:40:51.223Z,2.15
2022-11-19T01:43:11.114Z,1.58
2022-11-19T01:45:54.357Z,1.52
2022-11-19T01:48:28.181Z,1.80
2022-11-19T01:50:31.126Z,4.35
2022-11-19T01:53:09.589Z,1.88
2022-11-19T01:55:14.158Z,2.55
2022-11-19T01:59:35.143Z,1.75
2022-11-19T02:01:39.097Z,0.57
2022-11-19T02:03:40.814Z,0.90
2022-11-19T02:06:23.296Z,0.98
2022-11-19T02:08:36.886Z,0.55
2022-11-19T02:11:03.001Z,1.50
2022-11-19T02:13:32.454Z,0.52
2022-11-19T02:15:42.750Z,0.95
2022-11-19T02:18:12.150Z,1.05
2022-11-19T02:23:47.552Z,1.38
2022-11-19T02:25:51.685Z,0.90
2022-11-19T02:28:13.386Z,0.85
2022-11-19T02:30:20.815Z,0.55
2022-11-19T02:32:33.584Z,2.60
2022-11-19T02:34:58.763Z,0.52
2022-11-19T02:37:25.286Z,0.55
2022-11-19T02:48:28.249Z,0.68
2022-11-19T02:50:34.821Z,1.83
2022-11-19T02:52:36.565Z,2.42
2022-11-19T02:54:37.868Z,0.98
2022-11-19T02:57:13.131Z,0.55
2022-11-19T02:59:54.332Z,0.95
2022-11-19T03:02:15.965Z,1.23
2022-11-19T03:04:34.935Z,1.38
2022-11-19T03:09:10.178Z,0.93
2022-11-19T03:11:50.268Z,1.37
2022-11-19T03:14:29.829Z,3.77
2022-11-19T03:16:44.496Z,4.82
2022-11-19T03:18:45.963Z,7.07
2022-11-19T03:20:55.698Z,7.00
2022-11-19T03:26:31.784Z,2.95
2022-11-19T03:28:37.413Z,2.78
2022-11-19T03:30:43.711Z,1.27
2022-11-19T03:32:54.193Z,1.67
2022-11-19T03:37:55.750Z,1.02
2022-11-19T03:40:13.355Z,0.88
2022-11-19T03:42:22.287Z,3.30
2022-11-19T03:44:45.196Z,1.35
2022-11-19T03:49:44.817Z,0.90
2022-11-19T03:51:52.106Z,1.20
2022-11-19T03:53:59.703Z,1.17
2022-11-19T03:56:04.781Z,1.48
2022-11-19T03:58:35.056Z,1.65
2022-11-19T04:00:39.439Z,1.30
2022-11-19T04:02:49.444Z,1.42
2022-11-19T04:05:12.707Z,0.87
2022-11-19T04:07:41.384Z,1.75
2022-11-19T04:09:53.162Z,2.80
2022-11-19T04:12:26.922Z,0.98
2022-11-19T04:14:28.516Z,1.25
2022-11-19T04:18:48.301Z,1.70
2022-11-19T04:21:02.399Z,1.73
2022-11-19T04:23:09.476Z,0.90
2022-11-19T04:25:10.779Z,1.48
2022-11-19T04:27:55.418Z,1.83
2022-11-19T04:30:04.218Z,1.00
2022-11-19T04:32:13.061Z,1.45
2022-11-19T04:36:32.810Z,1.13
2022-11-19T04:38:40.024Z,2.00
2022-11-19T04:41:12.224Z,1.45
2022-11-19T04:43:19.408Z,2.85
2022-11-19T04:45:20.845Z,3.53
2022-11-19T04:47:22.260Z,1.40
2022-11-19T04:49:29.438Z,2.72
2022-11-19T04:51:30.769Z,0.75
2022-11-19T04:56:24.288Z,2.25
2022-11-19T04:58:34.556Z,1.42
2022-11-19T05:00:41.807Z,1.65
2022-11-19T05:03:13.644Z,1.13
2022-11-19T05:06:05.288Z,3.22
2022-11-19T05:08:07.902Z,0.82
2022-11-19T05:10:09.542Z,1.40
2022-11-19T05:12:10.921Z,3.05
2022-11-19T05:14:18.387Z,1.10
2022-11-19T05:18:35.125Z,3.00
2022-11-19T05:20:36.516Z,1.42
2022-11-19T05:22:40.457Z,1.38
2022-11-19T05:24:41.828Z,2.65
2022-11-19T05:27:27.685Z,1.80
2022-11-19T05:29:38.356Z,3.63
2022-11-19T05:31:39.705Z,2.10
2022-11-19T05:34:21.717Z,1.55
2022-11-19T05:36:39.544Z,2.05
2022-11-19T05:38:43.958Z,1.73
2022-11-19T05:40:47.925Z,1.77
2022-11-19T05:43:03.415Z,2.85
2022-11-19T05:45:07.677Z,1.83
2022-11-19T05:47:08.968Z,0.88
2022-11-19T05:49:16.088Z,3.05
2022-11-19T05:51:17.647Z,1.13
2022-11-19T05:53:18.990Z,1.50
2022-11-19T05:55:28.797Z,1.98
2022-11-19T05:57:38.938Z,2.95
2022-11-19T05:59:43.815Z,2.70
2022-11-19T06:01:57.523Z,2.47
2022-11-19T06:07:42.483Z,6.05
2022-11-19T06:13:18.847Z,3.40
2022-11-19T06:15:42.615Z,1.38
2022-11-19T06:17:45.776Z,1.33
2022-11-19T06:19:59.114Z,1.45
2022-11-19T06:22:00.642Z,3.45
2022-11-19T06:24:07.979Z,1.48
2022-11-19T06:26:10.046Z,1.50
2022-11-19T06:28:11.487Z,2.35
2022-11-19T06:38:11.452Z,1.50
2022-11-19T06:40:20.569Z,3.28
2022-11-19T06:42:37.185Z,1.90
2022-11-19T06:44:38.515Z,1.40
2022-11-19T06:46:39.868Z,1.95
2022-11-19T06:48:48.929Z,2.67
2022-11-19T06:50:57.827Z,1.90
2022-11-19T06:52:59.078Z,1.67
2022-11-19T06:55:06.559Z,1.65
2022-11-19T06:59:42.042Z,1.77
2022-11-19T07:01:46.421Z,2.45
2022-11-19T07:03:50.684Z,2.15
2022-11-19T07:06:02.495Z,2.78
2022-11-19T07:08:04.226Z,2.40
2022-11-19T07:10:13.477Z,1.88
2022-11-19T07:12:14.807Z,2.70
2022-11-19T07:14:16.244Z,2.47
2022-11-19T07:16:17.554Z,2.17
2022-11-19T07:18:28.034Z,1.73
2022-11-19T07:20:29.882Z,3.08
2022-11-19T07:22:40.749Z,3.25
2022-11-19T07:24:42.035Z,2.85
2022-11-19T07:26:43.586Z,4.07
2022-11-19T07:28:44.873Z,2.55
2022-11-19T07:30:46.123Z,3.35
2022-11-19T07:32:55.148Z,5.68
2022-11-19T07:34:56.408Z,6.15
2022-11-19T07:37:03.380Z,8.80
2022-11-19T07:39:07.789Z,7.03
2022-11-19T07:44:03.869Z,8.93
2022-11-19T07:46:05.836Z,3.92
2022-11-19T07:48:16.313Z,2.95
2022-11-19T07:50:31.088Z,3.15
2022-11-19T07:52:32.473Z,2.30
2022-11-19T07:54:33.961Z,3.97
2022-11-19T07:56:38.004Z,2.15
2022-11-19T07:58:39.305Z,3.28
2022-11-19T08:00:40.652Z,3.90
2022-11-19T08:03:02.219Z,2.33
2022-11-19T08:05:04.030Z,2.88
2022-11-19T08:07:12.794Z,2.00
2022-11-19T08:09:17.201Z,3.45
2022-11-19T08:11:24.561Z,2.10
2022-11-19T08:13:32.107Z,3.42
2022-11-19T08:15:42.239Z,3.47
2022-11-19T08:18:08.616Z,2.45
2022-11-19T08:20:19.335Z,4.47
2022-11-19T08:22:20.723Z,2.28
2022-11-19T08:24:27.933Z,4.72
2022-11-19T08:26:32.115Z,4.65
2022-11-19T08:28:33.766Z,4.72
2022-11-19T08:33:06.870Z,4.85
2022-11-19T08:35:17.085Z,4.38
2022-11-19T08:37:18.396Z,2.58
2022-11-19T08:39:19.729Z,2.47
2022-11-19T08:41:55.709Z,2.30
2022-11-19T08:44:08.757Z,2.30
2022-11-19T08:46:10.099Z,6.03
2022-11-19T08:48:17.730Z,4.47
2022-11-19T08:50:22.435Z,3.35
2022-11-19T08:52:23.738Z,3.70
2022-11-19T08:54:34.156Z,3.92
2022-11-19T08:56:38.152Z,3.30
2022-11-19T08:58:47.421Z,2.25
2022-11-19T09:00:49.951Z,2.50
2022-11-19T09:02:51.242Z,2.55
2022-11-19T09:04:58.282Z,3.45
2022-11-19T09:07:02.708Z,3.65
2022-11-19T09:09:09.886Z,6.22
2022-11-19T09:11:18.533Z,3.80
2022-11-19T09:13:19.990Z,3.95
2022-11-19T09:15:27.414Z,3.75
2022-11-19T09:17:34.455Z,2.97
2022-11-19T09:19:38.417Z,3.60
2022-11-19T09:21:48.890Z,3.28
2022-11-19T09:23:59.088Z,3.78
2022-11-19T09:26:08.135Z,2.78
2022-11-19T09:28:15.253Z,3.13
2022-11-19T09:30:34.901Z,5.72
2022-11-19T09:32:42.246Z,4.00
2022-11-19T09:34:49.718Z,1.80
2022-11-19T09:36:51.815Z,3.03
2022-11-19T09:39:03.737Z,3.25
2022-11-19T09:41:23.484Z,2.58
2022-11-19T09:43:41.941Z,8.98
2022-11-19T09:45:45.846Z,4.72
2022-11-19T09:47:57.042Z,3.47
2022-11-19T09:50:10.623Z,3.90
2022-11-19T09:52:25.405Z,4.53
2022-11-19T09:54:33.273Z,4.88
2022-11-19T09:56:46.575Z,3.95
2022-11-19T09:58:48.417Z,10.43
2022-11-19T10:00:55.947Z,4.85
2022-11-19T10:03:18.676Z,4.68
2022-11-19T10:05:52.455Z,3.92
2022-11-19T10:08:19.437Z,5.03
2022-11-19T10:10:20.713Z,5.38
2022-11-19T10:12:25.457Z,4.60
2022-11-19T10:14:35.632Z,3.05
2022-11-19T10:16:51.141Z,2.55
2022-11-19T10:18:58.735Z,4.30
2022-11-19T10:21:04.754Z,3.25
2022-11-19T10:23:27.701Z,2.63
2022-11-19T10:25:47.483Z,4.05
2022-11-19T10:27:57.937Z,4.68
2022-11-19T10:30:09.628Z,2.28
2022-11-19T10:34:43.573Z,4.13
2022-11-19T10:36:47.894Z,2.00
2022-11-19T10:39:04.648Z,1.85
2022-11-19T10:41:24.198Z,1.45
2022-11-19T10:43:48.575Z,1.38
2022-11-19T10:45:49.880Z,2.17
2022-11-19T10:48:11.110Z,3.15
2022-11-19T10:50:15.883Z,4.18
2022-11-19T10:52:29.585Z,3.25
2022-11-19T10:54:31.420Z,3.28
2022-11-19T10:56:59.078Z,3.58
2022-11-19T10:59:26.648Z,2.03
2022-11-19T11:01:37.479Z,5.00
2022-11-19T11:04:05.055Z,4.53
2022-11-19T11:06:13.088Z,3.88
2022-11-19T11:08:17.165Z,4.47
2022-11-19T11:10:38.922Z,2.40
2022-11-19T11:13:05.160Z,4.70
2022-11-19T11:15:19.619Z,3.00
2022-11-19T11:17:32.623Z,6.68
2022-11-19T11:19:34.037Z,5.25
2022-11-19T11:21:44.084Z,4.70
2022-11-19T11:24:02.526Z,3.70
2022-11-19T11:26:25.480Z,3.83
2022-11-19T11:28:40.909Z,4.07
2022-11-19T11:31:02.140Z,4.93
2022-11-19T11:33:26.489Z,4.10
2022-11-19T11:35:41.992Z,3.63
2022-11-19T11:37:49.662Z,3.90
2022-11-19T11:39:55.361Z,2.20
2022-11-19T11:42:18.277Z,6.95
2022-11-19T11:44:20.633Z,4.07
2022-11-19T11:51:02.386Z,4.18
2022-11-19T11:53:10.088Z,3.67
2022-11-19T11:55:16.372Z,5.63
2022-11-19T11:57:22.169Z,5.82
2022-11-19T11:59:32.767Z,2.70
2022-11-19T12:01:34.053Z,3.97
2022-11-19T12:03:49.351Z,4.43
2022-11-19T12:08:40.528Z,3.85
2022-11-19T12:11:04.557Z,3.90
2022-11-19T12:13:31.073Z,3.17
2022-11-19T12:15:44.357Z,3.30
2022-11-19T12:18:12.002Z,3.33
2022-11-19T12:20:21.691Z,3.88
2022-11-19T12:22:29.039Z,5.72
2022-11-19T12:24:49.092Z,4.88
2022-11-19T12:27:08.783Z,3.50
2022-11-19T12:29:21.977Z,4.70
2022-11-19T12:31:45.253Z,6.10
2022-11-19T12:34:05.001Z,6.75
2022-11-19T12:36:24.981Z,6.80
2022-11-19T12:38:45.190Z,4.73
2022-11-19T12:40:46.476Z,5.40
2022-11-19T12:43:10.394Z,4.45
2022-11-19T12:45:30.534Z,7.07
2022-11-19T12:48:04.655Z,11.18
2022-11-19T12:50:31.620Z,6.63
2022-11-19T12:52:36.050Z,4.20
2022-11-19T12:54:52.361Z,4.93
2022-11-19T12:59:19.781Z,5.00
2022-11-19T13:01:33.196Z,3.85
2022-11-19T13:03:59.519Z,3.58
2022-11-19T13:06:15.354Z,5.35
2022-11-19T13:08:30.103Z,4.10
2022-11-19T13:10:44.792Z,2.45
2022-11-19T13:12:51.680Z,7.05
2022-11-19T13:15:31.644Z,6.72
2022-11-19T13:17:44.524Z,5.18
2022-11-19T13:20:40.034Z,6.90
2022-11-19T13:22:46.432Z,5.53
2022-11-19T13:25:24.389Z,7.18
2022-11-19T13:27:27.192Z,6.60
2022-11-19T13:29:46.990Z,3.60
2022-11-19T13:32:14.637Z,4.95
2022-11-19T13:34:43.200Z,4.55
2022-11-19T13:37:04.445Z,4.93
2022-11-19T13:39:35.154Z,6.75
2022-11-19T13:42:28.181Z,7.60
2022-11-19T13:44:44.649Z,5.57
2022-11-19T13:46:55.056Z,5.22
2022-11-19T13:49:04.785Z,6.43
2022-11-19T13:51:18.432Z,4.30
2022-11-19T13:53:28.081Z,4.97
2022-11-19T13:55:29.424Z,7.10
2022-11-19T13:57:44.012Z,5.47
2022-11-19T13:59:46.527Z,4.45
2022-11-19T14:02:15.505Z,4.70
2022-11-19T14:04:24.787Z,6.22
2022-11-19T14:07:00.852Z,6.47
2022-11-19T14:09:21.161Z,4.45
2022-11-19T14:11:44.376Z,5.95
2022-11-19T14:14:07.440Z,6.82
2022-11-19T14:16:51.372Z,5.97
2022-11-19T14:19:24.525Z,6.25
2022-11-19T14:21:44.203Z,4.00
2022-11-19T14:26:39.593Z,4.93
2022-11-19T14:29:04.395Z,5.00
2022-11-19T14:31:11.809Z,3.17
2022-11-19T14:33:31.771Z,4.10
2022-11-19T14:35:45.171Z,6.50
2022-11-19T14:38:15.771Z,5.57
2022-11-19T14:40:29.684Z,3.33
2022-11-19T14:42:31.230Z,4.30
2022-11-19T14:44:35.967Z,5.45
2022-11-19T14:46:47.842Z,5.05
2022-11-19T14:48:58.190Z,5.22
2022-11-19T14:51:09.779Z,5.85
2022-11-19T14:53:21.020Z,3.25
2022-11-19T14:55:23.251Z,3.55
2022-11-19T14:57:38.526Z,6.00
2022-11-19T14:59:48.919Z,5.32
2022-11-19T15:02:09.145Z,3.40
2022-11-19T15:04:16.759Z,7.82
2022-11-19T15:06:33.979Z,3.95
2022-11-19T15:09:02.217Z,6.07
2022-11-19T15:11:31.968Z,7.47
2022-11-19T15:13:46.625Z,3.88
2022-11-19T15:15:50.488Z,3.67
2022-11-19T15:18:02.345Z,3.78
2022-11-19T15:20:14.556Z,4.78
2022-11-19T15:22:15.908Z,4.95
2022-11-19T15:24:39.121Z,2.80
2022-11-19T15:26:59.568Z,6.53
2022-11-19T15:29:23.595Z,5.10
2022-11-19T15:31:39.048Z,3.35
2022-11-19T15:34:03.327Z,5.10
2022-11-19T15:36:04.675Z,5.22
2022-11-19T15:38:29.551Z,5.13
2022-11-19T15:40:33.943Z,3.45
2022-11-19T15:42:49.465Z,3.70
2022-11-19T15:45:19.397Z,5.40
2022-11-19T15:47:42.681Z,4.93
2022-11-19T15:49:52.779Z,6.97
2022-11-19T15:51:54.095Z,5.35
2022-11-19T15:53:58.528Z,4.82
2022-11-19T15:56:02.080Z,4.18
2022-11-19T15:58:16.910Z,5.55
2022-11-19T16:00:19.546Z,3.58
2022-11-19T16:02:31.180Z,5.68
2022-11-19T16:04:38.797Z,4.95
2022-11-19T16:06:50.913Z,5.68
2022-11-19T16:08:56.326Z,3.50
2022-11-19T16:17:04.101Z,3.70
2022-11-19T16:19:08.222Z,4.63
2022-11-19T16:21:09.766Z,7.30
2022-11-19T16:23:28.846Z,5.65
2022-11-19T16:25:37.784Z,4.10
2022-11-19T16:27:44.978Z,4.13
2022-11-19T16:29:46.644Z,5.32
2022-11-19T16:32:03.867Z,4.75
2022-11-19T16:34:05.191Z,5.05
2022-11-19T16:36:29.874Z,5.05
2022-11-19T16:38:31.294Z,4.93
2022-11-19T16:41:04.137Z,5.65
2022-11-19T16:43:08.259Z,5.68
2022-11-19T16:45:18.431Z,5.75
2022-11-19T16:47:39.471Z,4.80
2022-11-19T16:49:58.382Z,7.30
2022-11-19T16:52:08.147Z,4.47
2022-11-19T16:54:10.678Z,4.32
2022-11-19T16:56:17.019Z,6.18
2022-11-19T16:58:30.885Z,8.68
2022-11-19T17:00:32.200Z,11.52
2022-11-19T17:02:37.958Z,8.00
2022-11-19T17:05:01.708Z,7.03
2022-11-19T17:07:20.159Z,6.13
2022-11-19T17:09:33.558Z,4.72
2022-11-19T17:12:15.234Z,4.47
2022-11-19T17:14:24.213Z,5.30
2022-11-19T17:16:33.768Z,6.10
2022-11-19T17:18:41.942Z,6.30
2022-11-19T17:20:43.217Z,7.70
2022-11-19T17:22:44.761Z,8.15
2022-11-19T17:24:52.414Z,5.35
2022-11-19T17:27:02.437Z,5.28
2022-11-19T17:29:16.036Z,6.07
2022-11-19T17:31:22.794Z,4.38
2022-11-19T17:33:27.280Z,4.93
2022-11-19T17:35:45.802Z,6.43
2022-11-19T17:37:47.204Z,5.90
2022-11-19T17:39:48.595Z,3.90
2022-11-19T17:42:27.261Z,5.35
2022-11-19T17:44:41.089Z,7.88
2022-11-19T17:46:42.528Z,4.90
2022-11-19T17:48:45.151Z,4.45
2022-11-19T17:50:49.583Z,4.10
2022-11-19T17:52:58.292Z,5.75
2022-11-19T17:55:17.600Z,6.47
2022-11-19T17:57:21.720Z,4.15
2022-11-19T17:59:23.084Z,5.55
2022-11-19T18:01:24.491Z,6.20
2022-11-19T18:03:34.901Z,5.32
2022-11-19T18:05:36.789Z,4.80
2022-11-19T18:07:43.970Z,6.25
2022-11-19T18:09:51.396Z,6.20
2022-11-19T18:11:55.451Z,4.28
2022-11-19T18:14:01.891Z,6.03
2022-11-19T18:16:20.002Z,6.88
2022-11-19T18:18:21.362Z,5.18
2022-11-19T18:20:22.916Z,7.93
2022-11-19T18:22:32.883Z,10.02
2022-11-19T18:24:40.291Z,5.60
2022-11-19T18:26:41.786Z,5.05
2022-11-19T18:28:45.076Z,5.10
2022-11-19T18:31:05.444Z,6.35
2022-11-19T18:33:12.835Z,5.13
2022-11-19T18:35:25.719Z,5.47
2022-11-19T18:37:27.093Z,4.95
2022-11-19T18:39:37.465Z,7.72
2022-11-19T18:41:38.980Z,4.55
2022-11-19T18:44:02.132Z,4.75
2022-11-19T18:46:03.647Z,5.88
2022-11-19T18:48:07.965Z,7.13
2022-11-19T18:50:19.636Z,7.50
2022-11-19T18:52:33.936Z,5.45
2022-11-19T18:54:35.356Z,5.38
2022-11-19T18:56:39.898Z,5.57
2022-11-19T18:58:50.033Z,5.00
2022-11-19T19:00:51.366Z,6.13
2022-11-19T19:02:52.675Z,7.45
2022-11-19T19:04:59.898Z,5.65
2022-11-19T19:07:01.481Z,4.68
2022-11-19T19:09:03.126Z,7.35
2022-11-19T19:11:27.585Z,5.82
2022-11-19T19:13:34.850Z,4.90
2022-11-19T19:15:36.218Z,5.28
2022-11-19T19:17:37.583Z,4.93
2022-11-19T19:19:41.755Z,5.00
2022-11-19T19:21:43.148Z,5.55
2022-11-19T19:23:52.144Z,4.93
2022-11-19T19:26:03.808Z,6.65
2022-11-19T19:28:14.229Z,8.45
2022-11-19T19:30:15.904Z,6.68
2022-11-19T19:32:17.238Z,6.35
2022-11-19T19:34:18.589Z,6.40
2022-11-19T19:36:23.104Z,6.20
2022-11-19T19:38:24.566Z,4.97
2022-11-19T19:40:35.213Z,6.15
2022-11-19T19:42:42.755Z,6.20
2022-11-19T19:44:50.159Z,5.68
2022-11-19T19:46:51.576Z,7.03
2022-11-19T19:48:53.709Z,5.25
2022-11-19T19:50:58.066Z,6.80
2022-11-19T19:53:10.344Z,5.18
2022-11-19T19:55:20.497Z,5.20
2022-11-19T19:57:28.348Z,6.70
2022-11-19T19:59:29.712Z,7.00
2022-11-19T20:01:35.072Z,8.10
2022-11-19T20:03:43.304Z,4.63
2022-11-19T20:05:47.924Z,5.38
2022-11-19T20:07:51.945Z,7.50
2022-11-19T20:09:53.303Z,4.68
2022-11-19T20:12:03.902Z,4.63
2022-11-19T20:14:14.603Z,4.40
2022-11-19T20:16:23.577Z,5.57
2022-11-19T20:18:32.051Z,5.13
2022-11-19T20:20:33.405Z,4.90
2022-11-19T20:22:34.784Z,6.88
2022-11-19T20:26:57.293Z,3.90
2022-11-19T20:29:08.980Z,4.90
2022-11-19T20:31:22.368Z,6.40
2022-11-19T20:33:30.182Z,5.88
2022-11-19T20:35:31.498Z,4.32
2022-11-19T20:37:38.817Z,5.18
2022-11-19T20:39:40.184Z,5.70
2022-11-19T20:42:12.434Z,3.67
2022-11-19T20:44:27.172Z,6.05
2022-11-19T20:46:37.533Z,4.97
2022-11-19T20:48:39.516Z,5.60
2022-11-19T20:50:49.490Z,3.35
2022-11-19T20:52:56.967Z,3.00
2022-11-19T20:55:06.403Z,4.00
2022-11-19T20:57:26.072Z,3.90
2022-11-19T20:59:30.770Z,6.45
2022-11-19T21:01:55.481Z,4.50
2022-11-19T21:03:57.471Z,4.65
2022-11-19T21:06:08.104Z,4.10
2022-11-19T21:08:16.338Z,5.38
2022-11-19T21:10:17.742Z,4.90
2022-11-19T21:12:19.095Z,4.07
2022-11-19T21:14:26.596Z,5.47
2022-11-19T21:16:31.609Z,2.78
2022-11-19T21:18:36.607Z,4.90
2022-11-19T21:20:45.088Z,5.57
2022-11-19T21:22:48.149Z,4.90
2022-11-19T21:24:52.559Z,4.40
2022-11-19T21:26:53.914Z,3.53
2022-11-19T21:28:57.469Z,4.57
2022-11-19T21:31:07.609Z,5.55
2022-11-19T21:33:08.987Z,2.80
2022-11-19T21:35:10.718Z,5.05
2022-11-19T21:37:18.077Z,2.33
2022-11-19T21:39:22.788Z,3.78
2022-11-19T21:41:24.354Z,3.78
2022-11-19T21:43:26.767Z,3.15
2022-11-19T21:45:30.676Z,2.47
2022-11-19T21:47:37.125Z,3.05
2022-11-19T21:49:38.492Z,4.30
2022-11-19T21:51:39.851Z,4.78
2022-11-19T21:53:41.176Z,3.22
2022-11-19T21:55:43.354Z,3.95
2022-11-19T21:57:44.913Z,3.40
2022-11-19T21:59:46.255Z,3.28
2022-11-19T22:01:51.868Z,3.08
2022-11-19T22:04:03.724Z,5.07
2022-11-19T22:06:11.324Z,3.33
2022-11-19T22:08:21.644Z,2.90
2022-11-19T22:10:32.018Z,3.35
2022-11-19T22:12:43.423Z,4.47
2022-11-19T22:14:44.720Z,3.42
2022-11-19T22:16:54.511Z,3.50
2022-11-19T22:18:55.847Z,5.50
2022-11-19T22:21:03.649Z,6.50
2022-11-19T22:23:13.570Z,3.83
2022-11-19T22:25:14.979Z,4.00
2022-11-19T22:27:16.443Z,2.97
2022-11-19T22:29:18.053Z,3.70
2022-11-19T22:31:25.756Z,2.80
2022-11-19T22:33:34.293Z,3.25
2022-11-19T22:35:44.739Z,2.40
2022-11-19T22:37:54.965Z,2.75
2022-11-19T22:39:56.318Z,1.65
2022-11-19T22:41:57.699Z,2.00
2022-11-19T22:44:07.886Z,2.70
2022-11-19T22:46:12.928Z,3.47
2022-11-19T22:48:20.512Z,2.70
2022-11-19T22:50:48.549Z,2.85
2022-11-19T22:52:53.626Z,1.90
2022-11-19T22:55:00.982Z,3.20
2022-11-19T22:57:08.646Z,2.53
2022-11-19T22:59:10.415Z,2.78
2022-11-19T23:01:34.563Z,5.03
2022-11-19T23:03:45.271Z,4.35
2022-11-19T23:05:53.980Z,4.55
2022-11-19T23:08:03.035Z,3.03
2022-11-19T23:10:07.686Z,2.15
2022-11-19T23:12:33.521Z,2.40
2022-11-19T23:14:49.579Z,2.63
2022-11-19T23:16:53.535Z,2.30
2022-11-19T23:18:54.878Z,2.60
2022-11-19T23:21:00.198Z,2.47
2022-11-19T23:23:04.277Z,1.80
2022-11-19T23:25:06.255Z,1.75
2022-11-19T23:27:10.416Z,2.90
2022-11-19T23:29:23.944Z,3.25
2022-11-19T23:31:41.102Z,3.45
2022-11-19T23:33:42.837Z,2.45
2022-11-19T23:35:44.353Z,1.92
2022-11-19T23:37:45.673Z,2.70
2022-11-19T23:39:47.016Z,2.70
2022-11-19T23:41:48.392Z,3.90
2022-11-19T23:43:58.887Z,2.63
2022-11-19T23:46:12.177Z,3.28
2022-11-19T23:48:31.919Z,2.67
2022-11-19T23:50:42.438Z,3.22
2022-11-19T23:52:43.904Z,2.58
2022-11-19T23:54:45.272Z,1.50
2022-11-19T23:59:08.207Z,2.50
